sensor_id;sensor_type;location;lat;lon;timestamp;pressure;altitude;pressure_sealevel;temperature;humidity
6218;BME280;3142;48.206;11.550;2022-07-10T00:01:13;96244.50;;;21.21;56.95
6218;BME280;3142;48.206;11.550;2022-07-10T00:03:40;96252.03;;;20.97;57.31
6218;BME280;3142;48.206;11.550;2022-07-10T00:06:09;96248.47;;;20.86;57.39
6218;BME280;3142;48.206;11.550;2022-07-10T00:08:35;96247.53;;;20.76;58.00
6218;BME280;3142;48.206;11.550;2022-07-10T00:11:04;96243.72;;;20.66;58.27
6218;BME280;3142;48.206;11.550;2022-07-10T00:13:30;96248.09;;;20.56;59.09
6218;BME280;3142;48.206;11.550;2022-07-10T00:15:56;96251.59;;;20.56;59.44
6218;BME280;3142;48.206;11.550;2022-07-10T00:18:23;96258.63;;;20.67;59.63
6218;BME280;3142;48.206;11.550;2022-07-10T00:20:49;96256.03;;;20.73;59.72
6218;BME280;3142;48.206;11.550;2022-07-10T00:23:16;96260.06;;;20.53;60.51
6218;BME280;3142;48.206;11.550;2022-07-10T00:25:42;96256.94;;;20.39;61.01
6218;BME280;3142;48.206;11.550;2022-07-10T00:28:10;96269.78;;;20.43;61.36
6218;BME280;3142;48.206;11.550;2022-07-10T00:30:37;96276.84;;;20.37;61.59
6218;BME280;3142;48.206;11.550;2022-07-10T00:33:03;96275.69;;;20.50;61.18
6218;BME280;3142;48.206;11.550;2022-07-10T00:35:30;96277.16;;;20.40;61.70
6218;BME280;3142;48.206;11.550;2022-07-10T00:37:56;96290.59;;;20.51;61.38
6218;BME280;3142;48.206;11.550;2022-07-10T00:40:23;96283.81;;;20.60;61.07
6218;BME280;3142;48.206;11.550;2022-07-10T00:42:50;96283.84;;;20.65;61.09
6218;BME280;3142;48.206;11.550;2022-07-10T00:45:18;96280.09;;;20.61;61.09
6218;BME280;3142;48.206;11.550;2022-07-10T00:47:44;96288.53;;;20.36;61.97
6218;BME280;3142;48.206;11.550;2022-07-10T00:50:11;96285.63;;;20.37;62.12
6218;BME280;3142;48.206;11.550;2022-07-10T00:52:38;96272.19;;;20.44;61.53
6218;BME280;3142;48.206;11.550;2022-07-10T00:55:05;96268.31;;;20.35;61.85
6218;BME280;3142;48.206;11.550;2022-07-10T00:57:32;96269.09;;;20.13;62.39
6218;BME280;3142;48.206;11.550;2022-07-10T00:59:59;96275.00;;;20.16;62.54
6218;BME280;3142;48.206;11.550;2022-07-10T01:02:27;96271.84;;;20.19;62.61
6218;BME280;3142;48.206;11.550;2022-07-10T01:04:56;96280.13;;;20.22;62.88
6218;BME280;3142;48.206;11.550;2022-07-10T01:07:23;96264.78;;;20.07;63.84
6218;BME280;3142;48.206;11.550;2022-07-10T01:09:49;96266.56;;;20.02;63.95
6218;BME280;3142;48.206;11.550;2022-07-10T01:12:17;96262.94;;;20.08;64.38
6218;BME280;3142;48.206;11.550;2022-07-10T01:14:43;96256.63;;;20.14;64.41
6218;BME280;3142;48.206;11.550;2022-07-10T01:17:11;96251.53;;;20.12;64.98
6218;BME280;3142;48.206;11.550;2022-07-10T01:19:39;96253.78;;;20.21;65.20
6218;BME280;3142;48.206;11.550;2022-07-10T01:22:07;96261.56;;;20.27;65.10
6218;BME280;3142;48.206;11.550;2022-07-10T01:24:34;96250.13;;;20.27;65.13
6218;BME280;3142;48.206;11.550;2022-07-10T01:27:01;96251.75;;;20.28;65.66
6218;BME280;3142;48.206;11.550;2022-07-10T01:29:28;96241.84;;;20.23;65.85
6218;BME280;3142;48.206;11.550;2022-07-10T01:31:55;96239.44;;;20.22;66.37
6218;BME280;3142;48.206;11.550;2022-07-10T01:34:22;96241.81;;;20.18;66.28
6218;BME280;3142;48.206;11.550;2022-07-10T01:36:48;96239.06;;;20.13;66.73
6218;BME280;3142;48.206;11.550;2022-07-10T01:39:16;96238.50;;;20.11;66.82
6218;BME280;3142;48.206;11.550;2022-07-10T01:41:42;96243.28;;;20.09;66.65
6218;BME280;3142;48.206;11.550;2022-07-10T01:44:09;96228.69;;;20.11;67.07
6218;BME280;3142;48.206;11.550;2022-07-10T01:46:35;96219.22;;;19.99;67.41
6218;BME280;3142;48.206;11.550;2022-07-10T01:49:08;96223.19;;;19.96;67.74
6218;BME280;3142;48.206;11.550;2022-07-10T01:51:35;96220.28;;;19.98;67.26
6218;BME280;3142;48.206;11.550;2022-07-10T01:54:01;96218.38;;;19.93;67.29
6218;BME280;3142;48.206;11.550;2022-07-10T01:56:29;96214.09;;;19.92;66.70
6218;BME280;3142;48.206;11.550;2022-07-10T01:58:55;96220.22;;;19.93;66.54
6218;BME280;3142;48.206;11.550;2022-07-10T02:01:22;96219.16;;;19.94;66.58
6218;BME280;3142;48.206;11.550;2022-07-10T02:03:48;96215.75;;;19.98;65.90
6218;BME280;3142;48.206;11.550;2022-07-10T02:06:32;96208.59;;;19.99;66.59
6218;BME280;3142;48.206;11.550;2022-07-10T02:08:58;96206.44;;;19.96;66.99
6218;BME280;3142;48.206;11.550;2022-07-10T02:11:24;96200.38;;;20.00;67.05
6218;BME280;3142;48.206;11.550;2022-07-10T02:13:52;96202.22;;;20.00;67.09
6218;BME280;3142;48.206;11.550;2022-07-10T02:16:19;96207.00;;;19.98;66.88
6218;BME280;3142;48.206;11.550;2022-07-10T02:18:45;96208.53;;;19.94;67.58
6218;BME280;3142;48.206;11.550;2022-07-10T02:21:11;96211.44;;;19.92;67.09
6218;BME280;3142;48.206;11.550;2022-07-10T02:23:38;96209.84;;;19.91;67.26
6218;BME280;3142;48.206;11.550;2022-07-10T02:26:06;96205.19;;;19.81;68.29
6218;BME280;3142;48.206;11.550;2022-07-10T02:28:32;96210.69;;;19.75;67.57
6218;BME280;3142;48.206;11.550;2022-07-10T02:31:00;96209.31;;;19.72;68.17
6218;BME280;3142;48.206;11.550;2022-07-10T02:33:26;96205.72;;;19.62;67.81
6218;BME280;3142;48.206;11.550;2022-07-10T02:35:53;96207.00;;;19.59;68.25
6218;BME280;3142;48.206;11.550;2022-07-10T02:38:19;96210.44;;;19.60;68.22
6218;BME280;3142;48.206;11.550;2022-07-10T02:40:46;96213.34;;;19.58;67.87
6218;BME280;3142;48.206;11.550;2022-07-10T02:43:12;96201.13;;;19.57;68.22
6218;BME280;3142;48.206;11.550;2022-07-10T02:45:38;96206.69;;;19.56;68.06
6218;BME280;3142;48.206;11.550;2022-07-10T02:48:06;96211.41;;;19.53;68.46
6218;BME280;3142;48.206;11.550;2022-07-10T02:50:33;96214.31;;;19.52;68.58
6218;BME280;3142;48.206;11.550;2022-07-10T02:52:59;96207.63;;;19.49;68.36
6218;BME280;3142;48.206;11.550;2022-07-10T02:55:26;96212.59;;;19.46;69.28
6218;BME280;3142;48.206;11.550;2022-07-10T02:57:52;96212.59;;;19.46;68.45
6218;BME280;3142;48.206;11.550;2022-07-10T03:00:18;96214.94;;;19.42;69.28
6218;BME280;3142;48.206;11.550;2022-07-10T03:02:45;96212.53;;;19.41;69.01
6218;BME280;3142;48.206;11.550;2022-07-10T03:05:13;96212.53;;;19.41;68.98
6218;BME280;3142;48.206;11.550;2022-07-10T03:07:39;96211.66;;;19.35;69.21
6218;BME280;3142;48.206;11.550;2022-07-10T03:10:07;96216.97;;;19.35;69.39
6218;BME280;3142;48.206;11.550;2022-07-10T03:12:33;96205.31;;;19.36;69.65
6218;BME280;3142;48.206;11.550;2022-07-10T03:14:59;96206.38;;;19.35;69.01
6218;BME280;3142;48.206;11.550;2022-07-10T03:17:26;96200.97;;;19.30;69.56
6218;BME280;3142;48.206;11.550;2022-07-10T03:19:52;96200.97;;;19.30;69.65
6218;BME280;3142;48.206;11.550;2022-07-10T03:22:20;96200.09;;;19.24;69.71
6218;BME280;3142;48.206;11.550;2022-07-10T03:24:47;96203.00;;;19.23;69.97
6218;BME280;3142;48.206;11.550;2022-07-10T03:27:14;96210.22;;;19.28;69.12
6218;BME280;3142;48.206;11.550;2022-07-10T03:29:40;96212.63;;;19.29;69.80
6218;BME280;3142;48.206;11.550;2022-07-10T03:32:08;96213.44;;;19.30;69.50
6218;BME280;3142;48.206;11.550;2022-07-10T03:34:34;96220.03;;;19.27;69.23
6218;BME280;3142;48.206;11.550;2022-07-10T03:37:00;96209.66;;;19.26;69.25
6218;BME280;3142;48.206;11.550;2022-07-10T03:39:29;96217.63;;;19.26;69.52
6218;BME280;3142;48.206;11.550;2022-07-10T03:41:55;96215.22;;;19.24;69.57
6218;BME280;3142;48.206;11.550;2022-07-10T03:44:22;96220.03;;;19.27;69.49
6218;BME280;3142;48.206;11.550;2022-07-10T03:46:48;96216.00;;;19.24;69.95
6218;BME280;3142;48.206;11.550;2022-07-10T03:49:14;96217.31;;;19.22;69.63
6218;BME280;3142;48.206;11.550;2022-07-10T03:51:41;96219.06;;;19.16;69.85
6218;BME280;3142;48.206;11.550;2022-07-10T03:54:07;96209.72;;;19.14;70.16
6218;BME280;3142;48.206;11.550;2022-07-10T03:56:35;96215.28;;;19.12;69.74
6218;BME280;3142;48.206;11.550;2022-07-10T03:59:19;96217.69;;;19.14;69.57
6218;BME280;3142;48.206;11.550;2022-07-10T04:01:45;96206.75;;;19.10;70.13
6218;BME280;3142;48.206;11.550;2022-07-10T04:04:12;96212.00;;;19.05;70.33
6218;BME280;3142;48.206;11.550;2022-07-10T04:06:38;96218.31;;;19.04;70.31
6218;BME280;3142;48.206;11.550;2022-07-10T04:09:05;96214.66;;;19.05;70.47
6218;BME280;3142;48.206;11.550;2022-07-10T04:11:32;96211.41;;;19.03;70.72
6218;BME280;3142;48.206;11.550;2022-07-10T04:14:00;96217.50;;;19.04;70.76
6218;BME280;3142;48.206;11.550;2022-07-10T04:16:26;96210.59;;;19.03;70.93
6218;BME280;3142;48.206;11.550;2022-07-10T04:18:52;96207.38;;;19.01;71.07
6218;BME280;3142;48.206;11.550;2022-07-10T04:21:19;96207.38;;;19.01;71.26
6218;BME280;3142;48.206;11.550;2022-07-10T04:23:45;96206.59;;;19.00;70.70
6218;BME280;3142;48.206;11.550;2022-07-10T04:26:12;96202.09;;;19.01;71.10
6218;BME280;3142;48.206;11.550;2022-07-10T04:28:38;96209.97;;;18.96;71.15
6218;BME280;3142;48.206;11.550;2022-07-10T04:31:06;96209.66;;;18.92;71.29
6218;BME280;3142;48.206;11.550;2022-07-10T04:33:32;96211.50;;;18.91;71.63
6218;BME280;3142;48.206;11.550;2022-07-10T04:35:59;96212.06;;;18.93;71.64
6218;BME280;3142;48.206;11.550;2022-07-10T04:38:26;96210.78;;;18.96;71.47
6218;BME280;3142;48.206;11.550;2022-07-10T04:40:52;96213.66;;;18.94;71.72
6218;BME280;3142;48.206;11.550;2022-07-10T04:43:18;96210.53;;;18.98;71.15
6218;BME280;3142;48.206;11.550;2022-07-10T04:45:45;96211.16;;;19.05;71.10
6218;BME280;3142;48.206;11.550;2022-07-10T04:48:13;96217.06;;;19.07;71.28
6218;BME280;3142;48.206;11.550;2022-07-10T04:50:39;96220.75;;;19.06;71.27
6218;BME280;3142;48.206;11.550;2022-07-10T04:53:06;96223.88;;;19.03;71.14
6218;BME280;3142;48.206;11.550;2022-07-10T04:55:32;96224.09;;;19.01;70.87
6218;BME280;3142;48.206;11.550;2022-07-10T04:57:58;96218.31;;;19.04;70.62
6218;BME280;3142;48.206;11.550;2022-07-10T05:00:25;96221.38;;;18.96;71.37
6218;BME280;3142;48.206;11.550;2022-07-10T05:02:51;96219.53;;;18.97;71.18
6218;BME280;3142;48.206;11.550;2022-07-10T05:05:19;96232.06;;;19.01;70.48
6218;BME280;3142;48.206;11.550;2022-07-10T05:07:46;96230.69;;;18.99;70.89
6218;BME280;3142;48.206;11.550;2022-07-10T05:10:12;96237.44;;;18.89;71.53
6218;BME280;3142;48.206;11.550;2022-07-10T05:12:39;96236.47;;;18.79;71.18
6218;BME280;3142;48.206;11.550;2022-07-10T05:15:06;96234.47;;;18.86;71.54
6218;BME280;3142;48.206;11.550;2022-07-10T05:17:33;96230.06;;;18.91;71.45
6218;BME280;3142;48.206;11.550;2022-07-10T05:20:00;96234.88;;;18.94;70.75
6218;BME280;3142;48.206;11.550;2022-07-10T05:22:27;96238.81;;;18.92;70.69
6218;BME280;3142;48.206;11.550;2022-07-10T05:24:55;96249.75;;;18.96;70.97
6218;BME280;3142;48.206;11.550;2022-07-10T05:27:22;96248.94;;;18.95;70.39
6218;BME280;3142;48.206;11.550;2022-07-10T05:29:48;96247.59;;;18.92;70.56
6218;BME280;3142;48.206;11.550;2022-07-10T05:32:14;96241.47;;;18.63;70.84
6218;BME280;3142;48.206;11.550;2022-07-10T05:34:41;96251.56;;;18.78;71.04
6218;BME280;3142;48.206;11.550;2022-07-10T05:37:07;96247.44;;;18.71;71.20
6218;BME280;3142;48.206;11.550;2022-07-10T05:39:35;96256.91;;;18.67;71.05
6218;BME280;3142;48.206;11.550;2022-07-10T05:42:02;96250.19;;;18.76;70.66
6218;BME280;3142;48.206;11.550;2022-07-10T05:44:28;96242.22;;;18.76;70.59
6218;BME280;3142;48.206;11.550;2022-07-10T05:46:55;96242.72;;;18.89;69.93
6218;BME280;3142;48.206;11.550;2022-07-10T05:49:21;96241.94;;;18.89;69.93
6218;BME280;3142;48.206;11.550;2022-07-10T05:51:48;96242.13;;;18.99;69.22
6218;BME280;3142;48.206;11.550;2022-07-10T05:54:14;96244.47;;;19.12;69.18
6218;BME280;3142;48.206;11.550;2022-07-10T05:56:42;96243.97;;;19.15;69.16
6218;BME280;3142;48.206;11.550;2022-07-10T05:59:10;96244.31;;;19.19;68.28
6218;BME280;3142;48.206;11.550;2022-07-10T06:01:36;96243.59;;;19.23;68.34
6218;BME280;3142;48.206;11.550;2022-07-10T06:04:03;96241.56;;;19.31;68.11
6218;BME280;3142;48.206;11.550;2022-07-10T06:06:29;96234.66;;;19.30;68.03
6218;BME280;3142;48.206;11.550;2022-07-10T06:08:56;96241.81;;;19.29;68.73
6218;BME280;3142;48.206;11.550;2022-07-10T06:11:24;96243.84;;;19.22;68.64
6218;BME280;3142;48.206;11.550;2022-07-10T06:13:53;96241.81;;;19.12;68.76
6218;BME280;3142;48.206;11.550;2022-07-10T06:16:19;96246.88;;;19.14;68.23
6218;BME280;3142;48.206;11.550;2022-07-10T06:18:45;96253.22;;;19.13;68.49
6218;BME280;3142;48.206;11.550;2022-07-10T06:21:12;96256.47;;;18.86;69.34
6218;BME280;3142;48.206;11.550;2022-07-10T06:23:38;96252.09;;;18.92;68.97
6218;BME280;3142;48.206;11.550;2022-07-10T06:26:04;96258.03;;;18.99;69.14
6218;BME280;3142;48.206;11.550;2022-07-10T06:28:34;96258.69;;;19.06;68.72
6218;BME280;3142;48.206;11.550;2022-07-10T06:31:01;96255.47;;;18.76;69.42
6218;BME280;3142;48.206;11.550;2022-07-10T06:33:28;96255.03;;;18.79;69.32
6218;BME280;3142;48.206;11.550;2022-07-10T06:35:54;96251.41;;;18.85;68.92
6218;BME280;3142;48.206;11.550;2022-07-10T06:38:21;96255.75;;;18.91;68.21
6218;BME280;3142;48.206;11.550;2022-07-10T06:40:47;96251.03;;;18.93;68.67
6218;BME280;3142;48.206;11.550;2022-07-10T06:43:14;96255.28;;;18.94;67.99
6218;BME280;3142;48.206;11.550;2022-07-10T06:45:40;96261.88;;;18.91;68.48
6218;BME280;3142;48.206;11.550;2022-07-10T06:48:08;96258.19;;;18.92;68.72
6218;BME280;3142;48.206;11.550;2022-07-10T06:50:34;96258.88;;;18.88;68.33
6218;BME280;3142;48.206;11.550;2022-07-10T06:53:00;96250.78;;;18.94;67.66
6218;BME280;3142;48.206;11.550;2022-07-10T06:55:27;96252.09;;;18.92;68.36
6218;BME280;3142;48.206;11.550;2022-07-10T06:57:54;96255.25;;;19.06;68.35
6218;BME280;3142;48.206;11.550;2022-07-10T07:00:21;96251.38;;;19.13;67.24
6218;BME280;3142;48.206;11.550;2022-07-10T07:02:48;96249.84;;;19.17;67.69
6218;BME280;3142;48.206;11.550;2022-07-10T07:05:16;96260.56;;;19.22;67.45
6218;BME280;3142;48.206;11.550;2022-07-10T07:07:42;96257.50;;;19.31;67.22
6218;BME280;3142;48.206;11.550;2022-07-10T07:10:09;96253.88;;;19.20;67.49
6218;BME280;3142;48.206;11.550;2022-07-10T07:12:36;96257.00;;;19.17;67.19
6218;BME280;3142;48.206;11.550;2022-07-10T07:15:04;96259.09;;;19.15;67.44
6218;BME280;3142;48.206;11.550;2022-07-10T07:17:31;96275.03;;;18.86;68.32
6218;BME280;3142;48.206;11.550;2022-07-10T07:20:11;96271.03;;;18.84;68.07
6218;BME280;3142;48.206;11.550;2022-07-10T07:22:56;96276.06;;;18.85;67.92
6218;BME280;3142;48.206;11.550;2022-07-10T07:25:38;96277.91;;;19.13;67.52
6218;BME280;3142;48.206;11.550;2022-07-10T07:28:07;96278.03;;;19.35;66.94
6218;BME280;3142;48.206;11.550;2022-07-10T07:30:33;96269.41;;;19.28;67.56
6218;BME280;3142;48.206;11.550;2022-07-10T07:33:00;96278.00;;;19.52;65.99
6218;BME280;3142;48.206;11.550;2022-07-10T07:35:26;96266.38;;;19.70;66.16
6218;BME280;3142;48.206;11.550;2022-07-10T07:37:53;96277.19;;;19.85;65.46
6218;BME280;3142;48.206;11.550;2022-07-10T07:40:22;96278.19;;;19.79;64.33
6218;BME280;3142;48.206;11.550;2022-07-10T07:42:49;96276.19;;;19.69;64.24
6218;BME280;3142;48.206;11.550;2022-07-10T07:45:16;96282.88;;;19.55;64.52
6218;BME280;3142;48.206;11.550;2022-07-10T07:47:44;96281.44;;;19.64;64.84
6218;BME280;3142;48.206;11.550;2022-07-10T07:50:11;96279.41;;;19.71;64.66
6218;BME280;3142;48.206;11.550;2022-07-10T07:52:37;96278.81;;;19.86;63.58
6218;BME280;3142;48.206;11.550;2022-07-10T07:55:05;96286.97;;;20.18;63.27
6218;BME280;3142;48.206;11.550;2022-07-10T07:57:33;96281.56;;;20.13;64.02
6218;BME280;3142;48.206;11.550;2022-07-10T07:59:59;96281.72;;;20.23;63.79
6218;BME280;3142;48.206;11.550;2022-07-10T08:02:25;96277.88;;;20.53;61.95
6218;BME280;3142;48.206;11.550;2022-07-10T08:04:52;96273.47;;;20.63;61.09
6218;BME280;3142;48.206;11.550;2022-07-10T08:07:18;96272.66;;;20.63;60.32
6218;BME280;3142;48.206;11.550;2022-07-10T08:09:44;96273.94;;;20.38;61.16
6218;BME280;3142;48.206;11.550;2022-07-10T08:12:11;96279.19;;;20.33;61.33
6218;BME280;3142;48.206;11.550;2022-07-10T08:14:39;96282.88;;;20.10;60.90
6218;BME280;3142;48.206;11.550;2022-07-10T08:17:05;96278.31;;;20.28;59.84
6218;BME280;3142;48.206;11.550;2022-07-10T08:19:32;96277.88;;;20.53;58.85
6218;BME280;3142;48.206;11.550;2022-07-10T08:21:58;96277.78;;;20.69;58.24
6218;BME280;3142;48.206;11.550;2022-07-10T08:24:24;96278.41;;;20.77;57.79
6218;BME280;3142;48.206;11.550;2022-07-10T08:26:51;96281.44;;;21.12;57.33
6218;BME280;3142;48.206;11.550;2022-07-10T08:29:17;96277.34;;;21.26;56.21
6218;BME280;3142;48.206;11.550;2022-07-10T08:31:46;96272.09;;;21.69;55.05
6218;BME280;3142;48.206;11.550;2022-07-10T08:34:12;96272.53;;;21.55;56.79
6218;BME280;3142;48.206;11.550;2022-07-10T08:36:38;96266.66;;;21.53;56.81
6218;BME280;3142;48.206;11.550;2022-07-10T08:39:05;96268.53;;;21.58;55.85
6218;BME280;3142;48.206;11.550;2022-07-10T08:41:33;96267.53;;;21.32;55.57
6218;BME280;3142;48.206;11.550;2022-07-10T08:44:01;96273.59;;;21.00;56.21
6218;BME280;3142;48.206;11.550;2022-07-10T08:46:27;96274.47;;;20.57;57.24
6218;BME280;3142;48.206;11.550;2022-07-10T08:48:58;96276.44;;;20.67;56.48
6218;BME280;3142;48.206;11.550;2022-07-10T08:51:35;96279.38;;;20.92;55.53
6218;BME280;3142;48.206;11.550;2022-07-10T08:54:04;96273.13;;;21.09;55.76
6218;BME280;3142;48.206;11.550;2022-07-10T08:56:31;96269.25;;;21.48;55.66
6218;BME280;3142;48.206;11.550;2022-07-10T08:58:57;96269.13;;;21.33;55.50
6218;BME280;3142;48.206;11.550;2022-07-10T09:01:25;96271.50;;;21.03;55.96
6218;BME280;3142;48.206;11.550;2022-07-10T09:03:51;96277.78;;;20.69;55.54
6218;BME280;3142;48.206;11.550;2022-07-10T09:06:19;96279.66;;;21.23;54.04
6218;BME280;3142;48.206;11.550;2022-07-10T09:09:00;96269.72;;;21.77;52.34
6218;BME280;3142;48.206;11.550;2022-07-10T09:11:26;96267.84;;;22.10;51.10
6218;BME280;3142;48.206;11.550;2022-07-10T09:13:55;96259.50;;;22.49;50.15
6218;BME280;3142;48.206;11.550;2022-07-10T09:16:23;96260.84;;;22.51;50.78
6218;BME280;3142;48.206;11.550;2022-07-10T09:18:49;96272.28;;;22.04;50.85
6218;BME280;3142;48.206;11.550;2022-07-10T09:21:16;96265.94;;;22.05;49.40
6218;BME280;3142;48.206;11.550;2022-07-10T09:23:43;96264.31;;;22.52;47.46
6218;BME280;3142;48.206;11.550;2022-07-10T09:26:10;96262.19;;;22.59;47.69
6218;BME280;3142;48.206;11.550;2022-07-10T09:28:37;96263.19;;;22.37;48.04
6218;BME280;3142;48.206;11.550;2022-07-10T09:31:03;96262.69;;;21.98;49.06
6218;BME280;3142;48.206;11.550;2022-07-10T09:33:36;96277.03;;;21.55;49.31
6218;BME280;3142;48.206;11.550;2022-07-10T09:36:07;96271.84;;;21.38;49.04
6218;BME280;3142;48.206;11.550;2022-07-10T09:38:51;96270.25;;;21.74;47.69
6218;BME280;3142;48.206;11.550;2022-07-10T09:41:24;96270.84;;;21.44;48.04
6218;BME280;3142;48.206;11.550;2022-07-10T09:43:51;96267.28;;;21.66;47.71
6218;BME280;3142;48.206;11.550;2022-07-10T09:46:20;96271.41;;;22.31;47.06
6218;BME280;3142;48.206;11.550;2022-07-10T09:48:47;96263.25;;;22.58;47.33
6218;BME280;3142;48.206;11.550;2022-07-10T09:51:14;96264.66;;;22.75;46.93
6218;BME280;3142;48.206;11.550;2022-07-10T09:53:42;96263.16;;;23.10;46.62
6218;BME280;3142;48.206;11.550;2022-07-10T09:56:11;96260.28;;;23.57;45.25
6218;BME280;3142;48.206;11.550;2022-07-10T09:58:39;96251.13;;;23.84;43.36
6218;BME280;3142;48.206;11.550;2022-07-10T10:01:06;96257.03;;;23.40;43.55
6218;BME280;3142;48.206;11.550;2022-07-10T10:03:34;96258.31;;;22.92;43.34
6218;BME280;3142;48.206;11.550;2022-07-10T10:06:03;96258.22;;;22.66;43.87
6218;BME280;3142;48.206;11.550;2022-07-10T10:08:34;96263.31;;;22.10;45.38
6218;BME280;3142;48.206;11.550;2022-07-10T10:11:04;96261.38;;;22.48;45.28
6218;BME280;3142;48.206;11.550;2022-07-10T10:13:34;96265.00;;;23.10;44.25
6218;BME280;3142;48.206;11.550;2022-07-10T10:16:02;96259.69;;;23.55;43.75
6218;BME280;3142;48.206;11.550;2022-07-10T10:18:28;96254.06;;;23.82;40.69
6218;BME280;3142;48.206;11.550;2022-07-10T10:20:55;96252.41;;;24.12;40.28
6218;BME280;3142;48.206;11.550;2022-07-10T10:23:22;96247.28;;;24.36;39.64
6218;BME280;3142;48.206;11.550;2022-07-10T10:25:51;96246.84;;;23.83;40.57
6218;BME280;3142;48.206;11.550;2022-07-10T10:28:19;96252.50;;;23.61;41.85
6218;BME280;3142;48.206;11.550;2022-07-10T10:30:51;96258.34;;;23.27;43.08
6218;BME280;3142;48.206;11.550;2022-07-10T10:33:44;96256.16;;;22.89;43.34
6218;BME280;3142;48.206;11.550;2022-07-10T10:36:43;96244.88;;;22.71;43.35
6218;BME280;3142;48.206;11.550;2022-07-10T10:39:11;96247.13;;;23.15;42.91
6218;BME280;3142;48.206;11.550;2022-07-10T10:41:40;96245.53;;;23.80;42.21
6218;BME280;3142;48.206;11.550;2022-07-10T10:44:22;96242.53;;;24.12;39.84
6218;BME280;3142;48.206;11.550;2022-07-10T10:46:59;96241.69;;;24.32;39.69
6218;BME280;3142;48.206;11.550;2022-07-10T10:49:53;96237.59;;;24.55;38.76
6218;BME280;3142;48.206;11.550;2022-07-10T10:52:22;96234.78;;;24.06;40.29
6218;BME280;3142;48.206;11.550;2022-07-10T10:55:13;96243.94;;;23.18;41.32
6218;BME280;3142;48.206;11.550;2022-07-10T10:57:41;96243.09;;;22.97;41.19
6218;BME280;3142;48.206;11.550;2022-07-10T11:00:14;96252.75;;;23.24;41.07
6218;BME280;3142;48.206;11.550;2022-07-10T11:02:48;96238.06;;;23.52;41.11
6218;BME280;3142;48.206;11.550;2022-07-10T11:05:43;96238.34;;;23.45;41.00
6218;BME280;3142;48.206;11.550;2022-07-10T11:08:11;96239.66;;;23.53;41.50
6218;BME280;3142;48.206;11.550;2022-07-10T11:10:39;96238.59;;;23.18;42.37
6218;BME280;3142;48.206;11.550;2022-07-10T11:13:06;96239.66;;;23.38;42.46
6218;BME280;3142;48.206;11.550;2022-07-10T11:15:35;96240.69;;;23.92;41.11
6218;BME280;3142;48.206;11.550;2022-07-10T11:18:03;96240.59;;;24.23;39.26
6218;BME280;3142;48.206;11.550;2022-07-10T11:20:32;96245.19;;;24.17;38.71
6218;BME280;3142;48.206;11.550;2022-07-10T11:23:16;96231.84;;;24.07;38.85
6218;BME280;3142;48.206;11.550;2022-07-10T11:25:48;96229.28;;;23.61;39.81
6218;BME280;3142;48.206;11.550;2022-07-10T11:28:32;96233.53;;;23.17;40.96
6218;BME280;3142;48.206;11.550;2022-07-10T11:31:04;96240.19;;;23.70;40.88
6218;BME280;3142;48.206;11.550;2022-07-10T11:33:38;96239.88;;;24.02;41.12
6218;BME280;3142;48.206;11.550;2022-07-10T11:36:10;96231.28;;;24.10;41.27
6218;BME280;3142;48.206;11.550;2022-07-10T11:38:40;96229.91;;;24.23;41.79
6218;BME280;3142;48.206;11.550;2022-07-10T11:41:12;96234.72;;;24.21;40.61
6218;BME280;3142;48.206;11.550;2022-07-10T11:43:45;96227.00;;;24.09;39.83
6218;BME280;3142;48.206;11.550;2022-07-10T11:46:12;96229.22;;;23.41;40.57
6218;BME280;3142;48.206;11.550;2022-07-10T11:48:39;96228.16;;;23.27;40.75
6218;BME280;3142;48.206;11.550;2022-07-10T11:51:16;96238.59;;;23.54;39.58
6218;BME280;3142;48.206;11.550;2022-07-10T11:53:52;96226.56;;;23.77;39.14
6218;BME280;3142;48.206;11.550;2022-07-10T11:56:19;96227.13;;;23.58;40.09
6218;BME280;3142;48.206;11.550;2022-07-10T11:58:53;96222.06;;;23.62;41.21
6218;BME280;3142;48.206;11.550;2022-07-10T12:01:19;96230.03;;;23.42;40.91
6218;BME280;3142;48.206;11.550;2022-07-10T12:03:53;96221.47;;;23.55;40.28
6218;BME280;3142;48.206;11.550;2022-07-10T12:06:21;96228.97;;;23.22;40.95
6218;BME280;3142;48.206;11.550;2022-07-10T12:08:50;96230.84;;;23.42;40.29
6218;BME280;3142;48.206;11.550;2022-07-10T12:11:18;96231.94;;;23.46;40.31
6218;BME280;3142;48.206;11.550;2022-07-10T12:13:46;96227.91;;;23.64;40.28
6218;BME280;3142;48.206;11.550;2022-07-10T12:16:13;96232.72;;;23.47;40.77
6218;BME280;3142;48.206;11.550;2022-07-10T12:18:41;96227.63;;;23.15;41.25
6218;BME280;3142;48.206;11.550;2022-07-10T12:21:08;96223.91;;;23.31;40.78
6218;BME280;3142;48.206;11.550;2022-07-10T12:23:35;96232.72;;;23.31;41.20
6218;BME280;3142;48.206;11.550;2022-07-10T12:26:08;96227.38;;;23.31;39.71
6218;BME280;3142;48.206;11.550;2022-07-10T12:28:50;96227.91;;;23.33;39.62
6218;BME280;3142;48.206;11.550;2022-07-10T12:31:21;96223.63;;;23.43;40.14
6218;BME280;3142;48.206;11.550;2022-07-10T12:33:52;96226.81;;;23.29;39.99
6218;BME280;3142;48.206;11.550;2022-07-10T12:36:20;96225.78;;;23.35;39.84
6218;BME280;3142;48.206;11.550;2022-07-10T12:38:54;96232.47;;;23.33;39.36
6218;BME280;3142;48.206;11.550;2022-07-10T12:41:24;96227.09;;;23.38;38.96
6218;BME280;3142;48.206;11.550;2022-07-10T12:43:51;96227.09;;;23.38;39.59
6218;BME280;3142;48.206;11.550;2022-07-10T12:46:19;96229.50;;;23.04;40.53
6218;BME280;3142;48.206;11.550;2022-07-10T12:49:06;96228.16;;;22.96;40.89
6218;BME280;3142;48.206;11.550;2022-07-10T12:51:34;96233.50;;;23.01;40.70
6218;BME280;3142;48.206;11.550;2022-07-10T12:54:08;96233.50;;;22.96;40.13
6218;BME280;3142;48.206;11.550;2022-07-10T12:56:36;96238.31;;;23.04;40.30
6218;BME280;3142;48.206;11.550;2022-07-10T12:59:12;96242.84;;;23.14;40.38
6218;BME280;3142;48.206;11.550;2022-07-10T13:01:40;96240.97;;;23.30;40.31
6218;BME280;3142;48.206;11.550;2022-07-10T13:04:07;96235.66;;;23.50;39.62
6218;BME280;3142;48.206;11.550;2022-07-10T13:06:35;96239.41;;;23.64;39.06
6218;BME280;3142;48.206;11.550;2022-07-10T13:09:03;96240.47;;;23.79;38.65
6218;BME280;3142;48.206;11.550;2022-07-10T13:11:44;96237.53;;;23.75;39.34
6218;BME280;3142;48.206;11.550;2022-07-10T13:14:11;96237.25;;;23.77;39.68
6218;BME280;3142;48.206;11.550;2022-07-10T13:16:37;96247.94;;;23.41;39.12